sensor_id;sensor_type;location;lat;lon;timestamp;temperature;humidity
20066;DHT22;10193;48.884;9.182;2022-08-01T00:01:15;25.80;38.00
20066;DHT22;10193;48.884;9.182;2022-08-01T00:03:42;25.80;38.00
20066;DHT22;10193;48.884;9.182;2022-08-01T00:06:08;25.80;38.20
20066;DHT22;10193;48.884;9.182;2022-08-01T00:08:35;25.70;38.20
20066;DHT22;10193;48.884;9.182;2022-08-01T00:11:02;25.70;38.30
20066;DHT22;10193;48.884;9.182;2022-08-01T00:13:28;25.70;38.40
20066;DHT22;10193;48.884;9.182;2022-08-01T00:15:55;25.60;38.60
20066;DHT22;10193;48.884;9.182;2022-08-01T00:18:23;25.60;38.80
20066;DHT22;10193;48.884;9.182;2022-08-01T00:20:50;25.50;38.80
20066;DHT22;10193;48.884;9.182;2022-08-01T00:23:17;25.50;38.80
20066;DHT22;10193;48.884;9.182;2022-08-01T00:25:44;25.50;39.00
20066;DHT22;10193;48.884;9.182;2022-08-01T00:28:11;25.50;39.20
20066;DHT22;10193;48.884;9.182;2022-08-01T00:30:39;25.40;39.10
20066;DHT22;10193;48.884;9.182;2022-08-01T00:33:05;25.40;39.20
20066;DHT22;10193;48.884;9.182;2022-08-01T00:35:34;25.40;39.20
20066;DHT22;10193;48.884;9.182;2022-08-01T00:38:00;25.40;39.30
20066;DHT22;10193;48.884;9.182;2022-08-01T00:40:27;25.40;39.40
20066;DHT22;10193;48.884;9.182;2022-08-01T00:42:54;25.30;39.40
20066;DHT22;10193;48.884;9.182;2022-08-01T00:45:21;25.30;39.40
20066;DHT22;10193;48.884;9.182;2022-08-01T00:47:48;25.30;39.50
20066;DHT22;10193;48.884;9.182;2022-08-01T00:50:15;25.20;39.50
20066;DHT22;10193;48.884;9.182;2022-08-01T00:52:43;25.20;39.70
20066;DHT22;10193;48.884;9.182;2022-08-01T00:55:12;25.20;39.80
20066;DHT22;10193;48.884;9.182;2022-08-01T00:57:39;25.20;40.00
20066;DHT22;10193;48.884;9.182;2022-08-01T01:00:07;25.10;40.00
20066;DHT22;10193;48.884;9.182;2022-08-01T01:02:34;25.10;40.10
20066;DHT22;10193;48.884;9.182;2022-08-01T01:05:01;25.10;40.20
20066;DHT22;10193;48.884;9.182;2022-08-01T01:07:32;25.10;40.40
20066;DHT22;10193;48.884;9.182;2022-08-01T01:10:09;25.10;40.70
20066;DHT22;10193;48.884;9.182;2022-08-01T01:12:43;25.00;40.60
20066;DHT22;10193;48.884;9.182;2022-08-01T01:15:17;25.00;40.80
20066;DHT22;10193;48.884;9.182;2022-08-01T01:17:47;25.00;40.90
20066;DHT22;10193;48.884;9.182;2022-08-01T01:20:15;25.00;40.90
20066;DHT22;10193;48.884;9.182;2022-08-01T01:22:54;25.00;41.00
20066;DHT22;10193;48.884;9.182;2022-08-01T01:25:39;24.90;41.10
20066;DHT22;10193;48.884;9.182;2022-08-01T01:28:12;24.90;41.30
20066;DHT22;10193;48.884;9.182;2022-08-01T01:30:44;24.90;41.40
20066;DHT22;10193;48.884;9.182;2022-08-01T01:33:13;24.80;41.30
20066;DHT22;10193;48.884;9.182;2022-08-01T01:35:45;24.80;41.50
20066;DHT22;10193;48.884;9.182;2022-08-01T01:38:17;24.90;41.70
20066;DHT22;10193;48.884;9.182;2022-08-01T01:40:45;24.80;41.80
20066;DHT22;10193;48.884;9.182;2022-08-01T01:43:15;24.70;41.70
20066;DHT22;10193;48.884;9.182;2022-08-01T01:45:44;24.70;41.80
20066;DHT22;10193;48.884;9.182;2022-08-01T01:48:14;24.70;41.90
20066;DHT22;10193;48.884;9.182;2022-08-01T01:50:43;24.70;41.90
20066;DHT22;10193;48.884;9.182;2022-08-01T01:53:12;24.70;41.90
20066;DHT22;10193;48.884;9.182;2022-08-01T01:55:40;24.70;42.00
20066;DHT22;10193;48.884;9.182;2022-08-01T01:58:08;24.70;42.00
20066;DHT22;10193;48.884;9.182;2022-08-01T02:00:37;24.70;42.20
20066;DHT22;10193;48.884;9.182;2022-08-01T02:03:07;24.60;42.20
20066;DHT22;10193;48.884;9.182;2022-08-01T02:05:36;24.60;42.30
20066;DHT22;10193;48.884;9.182;2022-08-01T02:08:04;24.60;42.30
20066;DHT22;10193;48.884;9.182;2022-08-01T02:10:32;24.60;42.30
20066;DHT22;10193;48.884;9.182;2022-08-01T02:13:02;24.50;42.30
20066;DHT22;10193;48.884;9.182;2022-08-01T02:15:30;24.50;42.40
20066;DHT22;10193;48.884;9.182;2022-08-01T02:17:59;24.50;42.50
20066;DHT22;10193;48.884;9.182;2022-08-01T02:20:29;24.40;42.50
20066;DHT22;10193;48.884;9.182;2022-08-01T02:23:02;24.40;42.60
20066;DHT22;10193;48.884;9.182;2022-08-01T02:25:33;24.30;42.70
20066;DHT22;10193;48.884;9.182;2022-08-01T02:28:06;24.30;42.70
20066;DHT22;10193;48.884;9.182;2022-08-01T02:30:35;24.20;42.70
20066;DHT22;10193;48.884;9.182;2022-08-01T02:33:05;24.20;42.80
20066;DHT22;10193;48.884;9.182;2022-08-01T02:35:35;24.20;43.10
20066;DHT22;10193;48.884;9.182;2022-08-01T02:38:05;24.10;43.10
20066;DHT22;10193;48.884;9.182;2022-08-01T02:40:33;24.00;43.10
20066;DHT22;10193;48.884;9.182;2022-08-01T02:43:03;24.00;43.20
20066;DHT22;10193;48.884;9.182;2022-08-01T02:45:33;24.00;43.40
20066;DHT22;10193;48.884;9.182;2022-08-01T02:48:05;23.90;43.40
20066;DHT22;10193;48.884;9.182;2022-08-01T02:50:34;23.80;43.50
20066;DHT22;10193;48.884;9.182;2022-08-01T02:53:04;23.80;43.60
20066;DHT22;10193;48.884;9.182;2022-08-01T02:55:32;23.80;43.70
20066;DHT22;10193;48.884;9.182;2022-08-01T02:58:01;23.70;43.80
20066;DHT22;10193;48.884;9.182;2022-08-01T03:00:29;23.70;43.90
20066;DHT22;10193;48.884;9.182;2022-08-01T03:02:58;23.70;44.00
20066;DHT22;10193;48.884;9.182;2022-08-01T03:05:27;23.60;44.00
20066;DHT22;10193;48.884;9.182;2022-08-01T03:07:56;23.60;44.70
20066;DHT22;10193;48.884;9.182;2022-08-01T03:10:24;23.50;44.20
20066;DHT22;10193;48.884;9.182;2022-08-01T03:12:52;23.50;44.30
20066;DHT22;10193;48.884;9.182;2022-08-01T03:15:20;23.40;44.40
20066;DHT22;10193;48.884;9.182;2022-08-01T03:17:49;23.30;44.40
20066;DHT22;10193;48.884;9.182;2022-08-01T03:20:18;23.30;44.60
20066;DHT22;10193;48.884;9.182;2022-08-01T03:22:49;23.20;44.60
20066;DHT22;10193;48.884;9.182;2022-08-01T03:25:18;23.20;44.80
20066;DHT22;10193;48.884;9.182;2022-08-01T03:27:51;23.10;44.90
20066;DHT22;10193;48.884;9.182;2022-08-01T03:30:21;23.10;45.10
20066;DHT22;10193;48.884;9.182;2022-08-01T03:32:49;23.10;45.00
20066;DHT22;10193;48.884;9.182;2022-08-01T03:35:16;23.00;45.10
20066;DHT22;10193;48.884;9.182;2022-08-01T03:37:45;23.00;45.20
20066;DHT22;10193;48.884;9.182;2022-08-01T03:40:20;22.90;45.30
20066;DHT22;10193;48.884;9.182;2022-08-01T03:42:50;22.80;45.60
20066;DHT22;10193;48.884;9.182;2022-08-01T03:45:21;22.80;45.50
20066;DHT22;10193;48.884;9.182;2022-08-01T03:47:50;22.80;45.70
20066;DHT22;10193;48.884;9.182;2022-08-01T03:50:21;22.70;45.70
20066;DHT22;10193;48.884;9.182;2022-08-01T03:52:50;22.70;45.90
20066;DHT22;10193;48.884;9.182;2022-08-01T03:55:18;22.70;46.00
20066;DHT22;10193;48.884;9.182;2022-08-01T03:57:48;22.70;46.20
20066;DHT22;10193;48.884;9.182;2022-08-01T04:00:15;22.60;46.30
20066;DHT22;10193;48.884;9.182;2022-08-01T04:02:44;22.60;46.40
20066;DHT22;10193;48.884;9.182;2022-08-01T04:05:11;22.60;46.60
20066;DHT22;10193;48.884;9.182;2022-08-01T04:07:38;22.60;46.70
20066;DHT22;10193;48.884;9.182;2022-08-01T04:10:08;22.50;46.80
20066;DHT22;10193;48.884;9.182;2022-08-01T04:12:36;22.50;46.90
20066;DHT22;10193;48.884;9.182;2022-08-01T04:15:04;22.50;47.00
20066;DHT22;10193;48.884;9.182;2022-08-01T04:17:31;22.50;47.20
20066;DHT22;10193;48.884;9.182;2022-08-01T04:19:58;22.50;47.20
20066;DHT22;10193;48.884;9.182;2022-08-01T04:22:25;22.50;47.40
20066;DHT22;10193;48.884;9.182;2022-08-01T04:24:55;22.50;47.50
20066;DHT22;10193;48.884;9.182;2022-08-01T04:27:25;22.50;47.70
20066;DHT22;10193;48.884;9.182;2022-08-01T04:29:58;22.50;47.80
20066;DHT22;10193;48.884;9.182;2022-08-01T04:32:27;22.50;48.60
20066;DHT22;10193;48.884;9.182;2022-08-01T04:34:56;22.60;48.10
20066;DHT22;10193;48.884;9.182;2022-08-01T04:37:25;22.60;48.10
20066;DHT22;10193;48.884;9.182;2022-08-01T04:39:55;22.60;48.20
20066;DHT22;10193;48.884;9.182;2022-08-01T04:42:22;22.70;48.30
20066;DHT22;10193;48.884;9.182;2022-08-01T04:44:50;22.70;48.40
20066;DHT22;10193;48.884;9.182;2022-08-01T04:47:19;22.80;48.70
20066;DHT22;10193;48.884;9.182;2022-08-01T04:49:46;22.90;49.20
20066;DHT22;10193;48.884;9.182;2022-08-01T04:52:13;23.00;49.60
20066;DHT22;10193;48.884;9.182;2022-08-01T04:54:40;23.30;50.80
20066;DHT22;10193;48.884;9.182;2022-08-01T04:57:06;23.50;50.30
20066;DHT22;10193;48.884;9.182;2022-08-01T04:59:36;23.90;50.80
20066;DHT22;10193;48.884;9.182;2022-08-01T05:02:07;24.20;51.10
20066;DHT22;10193;48.884;9.182;2022-08-01T05:04:36;24.70;51.10
20066;DHT22;10193;48.884;9.182;2022-08-01T05:07:03;25.00;50.80
20066;DHT22;10193;48.884;9.182;2022-08-01T05:09:30;25.50;50.40
20066;DHT22;10193;48.884;9.182;2022-08-01T05:11:58;25.90;49.80
20066;DHT22;10193;48.884;9.182;2022-08-01T05:14:25;26.30;49.60
20066;DHT22;10193;48.884;9.182;2022-08-01T05:16:52;26.70;49.30
20066;DHT22;10193;48.884;9.182;2022-08-01T05:19:19;27.00;49.10
20066;DHT22;10193;48.884;9.182;2022-08-01T05:21:47;27.30;48.90
20066;DHT22;10193;48.884;9.182;2022-08-01T05:24:14;27.70;48.60
20066;DHT22;10193;48.884;9.182;2022-08-01T05:26:41;28.00;48.30
20066;DHT22;10193;48.884;9.182;2022-08-01T05:29:07;28.40;48.10
20066;DHT22;10193;48.884;9.182;2022-08-01T05:31:34;28.70;47.70
20066;DHT22;10193;48.884;9.182;2022-08-01T05:34:01;29.00;47.60
20066;DHT22;10193;48.884;9.182;2022-08-01T05:36:28;29.30;47.00
20066;DHT22;10193;48.884;9.182;2022-08-01T05:38:56;29.60;46.20
20066;DHT22;10193;48.884;9.182;2022-08-01T05:41:23;29.80;45.70
20066;DHT22;10193;48.884;9.182;2022-08-01T05:43:50;29.90;45.10
20066;DHT22;10193;48.884;9.182;2022-08-01T05:46:17;30.00;44.50
20066;DHT22;10193;48.884;9.182;2022-08-01T05:48:43;29.90;44.10
20066;DHT22;10193;48.884;9.182;2022-08-01T05:51:10;30.00;44.30
20066;DHT22;10193;48.884;9.182;2022-08-01T05:53:37;30.00;44.80
20066;DHT22;10193;48.884;9.182;2022-08-01T05:56:05;30.00;44.60
20066;DHT22;10193;48.884;9.182;2022-08-01T05:58:32;30.20;44.30
20066;DHT22;10193;48.884;9.182;2022-08-01T06:00:59;30.20;44.20
20066;DHT22;10193;48.884;9.182;2022-08-01T06:03:26;30.30;44.30
20066;DHT22;10193;48.884;9.182;2022-08-01T06:05:56;30.40;44.50
20066;DHT22;10193;48.884;9.182;2022-08-01T06:08:23;30.50;44.60
20066;DHT22;10193;48.884;9.182;2022-08-01T06:10:50;30.70;44.50
20066;DHT22;10193;48.884;9.182;2022-08-01T06:13:18;30.90;44.50
20066;DHT22;10193;48.884;9.182;2022-08-01T06:15:45;31.10;44.10
20066;DHT22;10193;48.884;9.182;2022-08-01T06:18:12;31.20;44.30
20066;DHT22;10193;48.884;9.182;2022-08-01T06:20:39;31.40;44.00
20066;DHT22;10193;48.884;9.182;2022-08-01T06:23:06;31.50;43.40
20066;DHT22;10193;48.884;9.182;2022-08-01T06:25:33;31.70;43.20
20066;DHT22;10193;48.884;9.182;2022-08-01T06:28:01;31.90;42.50
20066;DHT22;10193;48.884;9.182;2022-08-01T06:30:29;31.90;42.10
20066;DHT22;10193;48.884;9.182;2022-08-01T06:32:56;31.90;42.20
20066;DHT22;10193;48.884;9.182;2022-08-01T06:35:24;32.00;41.90
20066;DHT22;10193;48.884;9.182;2022-08-01T06:37:51;32.00;41.40
20066;DHT22;10193;48.884;9.182;2022-08-01T06:40:18;31.90;41.20
20066;DHT22;10193;48.884;9.182;2022-08-01T06:42:44;31.80;41.30
20066;DHT22;10193;48.884;9.182;2022-08-01T06:45:13;31.70;41.60
20066;DHT22;10193;48.884;9.182;2022-08-01T06:47:43;31.60;42.10
20066;DHT22;10193;48.884;9.182;2022-08-01T06:50:10;31.50;42.00
20066;DHT22;10193;48.884;9.182;2022-08-01T06:52:39;31.50;42.80
20066;DHT22;10193;48.884;9.182;2022-08-01T06:55:07;31.60;42.40
20066;DHT22;10193;48.884;9.182;2022-08-01T06:57:34;31.70;41.60
20066;DHT22;10193;48.884;9.182;2022-08-01T07:00:03;31.60;41.40
20066;DHT22;10193;48.884;9.182;2022-08-01T07:02:31;31.60;41.60
20066;DHT22;10193;48.884;9.182;2022-08-01T07:04:59;31.60;42.10
20066;DHT22;10193;48.884;9.182;2022-08-01T07:07:26;31.70;42.50
20066;DHT22;10193;48.884;9.182;2022-08-01T07:09:53;31.70;41.90
20066;DHT22;10193;48.884;9.182;2022-08-01T07:12:20;31.70;41.50
20066;DHT22;10193;48.884;9.182;2022-08-01T07:14:47;31.70;41.00
20066;DHT22;10193;48.884;9.182;2022-08-01T07:17:13;31.50;40.90
20066;DHT22;10193;48.884;9.182;2022-08-01T07:19:40;31.40;41.40
20066;DHT22;10193;48.884;9.182;2022-08-01T07:22:08;31.20;41.50
20066;DHT22;10193;48.884;9.182;2022-08-01T07:24:35;31.10;41.50
20066;DHT22;10193;48.884;9.182;2022-08-01T07:27:02;30.90;41.30
20066;DHT22;10193;48.884;9.182;2022-08-01T07:29:29;30.70;40.90
20066;DHT22;10193;48.884;9.182;2022-08-01T07:31:57;30.50;40.80
20066;DHT22;10193;48.884;9.182;2022-08-01T07:34:24;30.20;40.90
20066;DHT22;10193;48.884;9.182;2022-08-01T07:36:52;30.00;41.40
20066;DHT22;10193;48.884;9.182;2022-08-01T07:39:20;29.80;41.80
20066;DHT22;10193;48.884;9.182;2022-08-01T07:41:47;29.60;42.30
20066;DHT22;10193;48.884;9.182;2022-08-01T07:44:14;29.50;43.00
20066;DHT22;10193;48.884;9.182;2022-08-01T07:46:41;29.40;43.10
20066;DHT22;10193;48.884;9.182;2022-08-01T07:49:07;29.40;42.90
20066;DHT22;10193;48.884;9.182;2022-08-01T07:51:34;29.30;42.80
20066;DHT22;10193;48.884;9.182;2022-08-01T07:54:01;29.20;42.70
20066;DHT22;10193;48.884;9.182;2022-08-01T07:56:29;29.00;42.80
20066;DHT22;10193;48.884;9.182;2022-08-01T07:58:56;28.90;43.00
20066;DHT22;10193;48.884;9.182;2022-08-01T08:01:23;28.80;43.20
20066;DHT22;10193;48.884;9.182;2022-08-01T08:03:50;28.70;43.40
20066;DHT22;10193;48.884;9.182;2022-08-01T08:06:16;28.60;43.60
20066;DHT22;10193;48.884;9.182;2022-08-01T08:08:43;28.60;43.60
20066;DHT22;10193;48.884;9.182;2022-08-01T08:11:10;28.50;43.60
20066;DHT22;10193;48.884;9.182;2022-08-01T08:13:38;28.50;43.70
20066;DHT22;10193;48.884;9.182;2022-08-01T08:16:05;28.40;43.80
20066;DHT22;10193;48.884;9.182;2022-08-01T08:18:31;28.30;43.70
20066;DHT22;10193;48.884;9.182;2022-08-01T08:20:58;28.20;43.70
20066;DHT22;10193;48.884;9.182;2022-08-01T08:23:25;28.10;43.90
20066;DHT22;10193;48.884;9.182;2022-08-01T08:26:10;28.10;44.10
20066;DHT22;10193;48.884;9.182;2022-08-01T08:28:38;28.10;44.30
20066;DHT22;10193;48.884;9.182;2022-08-01T08:31:05;28.10;44.20
20066;DHT22;10193;48.884;9.182;2022-08-01T08:33:32;28.10;44.20
20066;DHT22;10193;48.884;9.182;2022-08-01T08:35:59;28.00;44.20
20066;DHT22;10193;48.884;9.182;2022-08-01T08:38:25;28.00;44.30
20066;DHT22;10193;48.884;9.182;2022-08-01T08:40:52;28.00;44.50
20066;DHT22;10193;48.884;9.182;2022-08-01T08:43:19;28.00;44.50
20066;DHT22;10193;48.884;9.182;2022-08-01T08:45:48;28.00;44.60
20066;DHT22;10193;48.884;9.182;2022-08-01T08:48:16;28.00;44.60
20066;DHT22;10193;48.884;9.182;2022-08-01T08:50:43;28.00;44.70
20066;DHT22;10193;48.884;9.182;2022-08-01T08:53:13;28.00;44.80
20066;DHT22;10193;48.884;9.182;2022-08-01T08:55:41;28.10;45.00
20066;DHT22;10193;48.884;9.182;2022-08-01T08:58:11;28.10;45.00
20066;DHT22;10193;48.884;9.182;2022-08-01T09:00:39;28.20;45.10
20066;DHT22;10193;48.884;9.182;2022-08-01T09:03:07;28.30;45.20
20066;DHT22;10193;48.884;9.182;2022-08-01T09:05:34;28.30;45.20
20066;DHT22;10193;48.884;9.182;2022-08-01T09:08:01;28.40;45.00
20066;DHT22;10193;48.884;9.182;2022-08-01T09:10:28;28.40;44.80
20066;DHT22;10193;48.884;9.182;2022-08-01T09:13:07;28.40;45.30
20066;DHT22;10193;48.884;9.182;2022-08-01T09:15:44;28.40;44.60
20066;DHT22;10193;48.884;9.182;2022-08-01T09:18:28;28.30;44.50
20066;DHT22;10193;48.884;9.182;2022-08-01T09:21:13;28.30;44.90
20066;DHT22;10193;48.884;9.182;2022-08-01T09:23:43;28.30;44.70
20066;DHT22;10193;48.884;9.182;2022-08-01T09:26:11;28.30;44.70
20066;DHT22;10193;48.884;9.182;2022-08-01T09:28:39;28.30;45.00
20066;DHT22;10193;48.884;9.182;2022-08-01T09:31:07;28.30;44.90
20066;DHT22;10193;48.884;9.182;2022-08-01T09:33:50;28.30;44.80
20066;DHT22;10193;48.884;9.182;2022-08-01T09:36:19;28.30;45.00
20066;DHT22;10193;48.884;9.182;2022-08-01T09:38:46;28.40;44.90
20066;DHT22;10193;48.884;9.182;2022-08-01T09:41:12;28.40;44.90
20066;DHT22;10193;48.884;9.182;2022-08-01T09:43:39;28.40;44.90
20066;DHT22;10193;48.884;9.182;2022-08-01T09:46:09;28.40;45.00
20066;DHT22;10193;48.884;9.182;2022-08-01T09:48:37;28.50;45.00
20066;DHT22;10193;48.884;9.182;2022-08-01T09:51:06;28.50;44.90
20066;DHT22;10193;48.884;9.182;2022-08-01T09:53:44;28.60;44.80
20066;DHT22;10193;48.884;9.182;2022-08-01T09:56:12;28.60;44.60
20066;DHT22;10193;48.884;9.182;2022-08-01T09:58:49;28.60;44.40
20066;DHT22;10193;48.884;9.182;2022-08-01T10:01:16;28.60;44.60
20066;DHT22;10193;48.884;9.182;2022-08-01T10:03:46;28.70;44.70
20066;DHT22;10193;48.884;9.182;2022-08-01T10:06:23;28.70;44.80
20066;DHT22;10193;48.884;9.182;2022-08-01T10:08:50;28.70;44.50
20066;DHT22;10193;48.884;9.182;2022-08-01T10:11:17;28.90;44.50
20066;DHT22;10193;48.884;9.182;2022-08-01T10:13:47;28.90;44.30
20066;DHT22;10193;48.884;9.182;2022-08-01T10:16:15;28.90;44.00
20066;DHT22;10193;48.884;9.182;2022-08-01T10:18:44;28.90;43.80
20066;DHT22;10193;48.884;9.182;2022-08-01T10:21:12;28.90;43.40
20066;DHT22;10193;48.884;9.182;2022-08-01T10:23:42;28.90;43.20
20066;DHT22;10193;48.884;9.182;2022-08-01T10:26:10;28.90;43.30
20066;DHT22;10193;48.884;9.182;2022-08-01T10:28:38;28.80;43.50
20066;DHT22;10193;48.884;9.182;2022-08-01T10:31:06;28.90;43.60
20066;DHT22;10193;48.884;9.182;2022-08-01T10:33:34;28.80;43.50
20066;DHT22;10193;48.884;9.182;2022-08-01T10:36:02;28.90;43.40
20066;DHT22;10193;48.884;9.182;2022-08-01T10:38:29;28.90;43.20
20066;DHT22;10193;48.884;9.182;2022-08-01T10:40:59;28.90;43.40
20066;DHT22;10193;48.884;9.182;2022-08-01T10:43:28;28.90;43.50
20066;DHT22;10193;48.884;9.182;2022-08-01T10:45:55;29.00;43.50
20066;DHT22;10193;48.884;9.182;2022-08-01T10:48:27;29.00;43.50
20066;DHT22;10193;48.884;9.182;2022-08-01T10:50:58;29.10;43.50
20066;DHT22;10193;48.884;9.182;2022-08-01T10:53:26;29.10;43.10
20066;DHT22;10193;48.884;9.182;2022-08-01T10:55:59;29.20;43.20
20066;DHT22;10193;48.884;9.182;2022-08-01T10:58:28;29.30;43.30
20066;DHT22;10193;48.884;9.182;2022-08-01T11:01:21;29.40;42.90
20066;DHT22;10193;48.884;9.182;2022-08-01T11:04:02;29.40;42.50
20066;DHT22;10193;48.884;9.182;2022-08-01T11:06:40;29.50;42.60
20066;DHT22;10193;48.884;9.182;2022-08-01T11:09:27;29.60;42.60
20066;DHT22;10193;48.884;9.182;2022-08-01T11:12:00;29.60;42.50
20066;DHT22;10193;48.884;9.182;2022-08-01T11:14:29;29.70;42.50
20066;DHT22;10193;48.884;9.182;2022-08-01T11:16:58;29.70;42.30
20066;DHT22;10193;48.884;9.182;2022-08-01T11:20:03;29.80;42.40
20066;DHT22;10193;48.884;9.182;2022-08-01T11:22:30;29.80;42.20
20066;DHT22;10193;48.884;9.182;2022-08-01T11:24:57;29.90;42.10
20066;DHT22;10193;48.884;9.182;2022-08-01T11:27:27;29.80;41.90
20066;DHT22;10193;48.884;9.182;2022-08-01T11:30:23;29.90;41.90
20066;DHT22;10193;48.884;9.182;2022-08-01T11:32:52;29.90;41.70
20066;DHT22;10193;48.884;9.182;2022-08-01T11:35:20;29.90;41.60
20066;DHT22;10193;48.884;9.182;2022-08-01T11:37:49;29.90;41.50
20066;DHT22;10193;48.884;9.182;2022-08-01T11:40:19;29.90;41.50
20066;DHT22;10193;48.884;9.182;2022-08-01T11:42:48;29.90;41.40
20066;DHT22;10193;48.884;9.182;2022-08-01T11:45:16;29.90;41.50
20066;DHT22;10193;48.884;9.182;2022-08-01T11:47:43;29.90;41.40
20066;DHT22;10193;48.884;9.182;2022-08-01T11:50:32;29.90;41.40
20066;DHT22;10193;48.884;9.182;2022-08-01T11:53:00;29.90;41.40
20066;DHT22;10193;48.884;9.182;2022-08-01T11:55:28;30.00;41.60
20066;DHT22;10193;48.884;9.182;2022-08-01T11:58:04;30.00;41.20
20066;DHT22;10193;48.884;9.182;2022-08-01T12:00:33;30.00;41.30
20066;DHT22;10193;48.884;9.182;2022-08-01T12:03:02;30.00;41.40
20066;DHT22;10193;48.884;9.182;2022-08-01T12:05:30;30.10;41.50
20066;DHT22;10193;48.884;9.182;2022-08-01T12:07:59;30.20;41.60
20066;DHT22;10193;48.884;9.182;2022-08-01T12:10:27;30.20;41.50
20066;DHT22;10193;48.884;9.182;2022-08-01T12:13:00;30.30;41.70
20066;DHT22;10193;48.884;9.182;2022-08-01T12:15:31;30.40;41.60
20066;DHT22;10193;48.884;9.182;2022-08-01T12:18:00;30.50;41.10
20066;DHT22;10193;48.884;9.182;2022-08-01T12:20:28;30.60;40.90
20066;DHT22;10193;48.884;9.182;2022-08-01T12:22:56;30.60;40.70
20066;DHT22;10193;48.884;9.182;2022-08-01T12:25:23;30.60;40.50
20066;DHT22;10193;48.884;9.182;2022-08-01T12:27:50;30.70;40.50
20066;DHT22;10193;48.884;9.182;2022-08-01T12:30:18;30.70;40.50
20066;DHT22;10193;48.884;9.182;2022-08-01T12:32:49;30.70;40.20
20066;DHT22;10193;48.884;9.182;2022-08-01T12:35:17;30.70;40.20
20066;DHT22;10193;48.884;9.182;2022-08-01T12:37:46;30.70;40.20
20066;DHT22;10193;48.884;9.182;2022-08-01T12:40:15;30.70;40.40
20066;DHT22;10193;48.884;9.182;2022-08-01T12:42:44;30.70;40.20
20066;DHT22;10193;48.884;9.182;2022-08-01T12:45:13;30.70;40.30
20066;DHT22;10193;48.884;9.182;2022-08-01T12:47:41;30.70;40.20
20066;DHT22;10193;48.884;9.182;2022-08-01T12:50:12;30.70;40.00
20066;DHT22;10193;48.884;9.182;2022-08-01T12:52:39;30.70;40.00
20066;DHT22;10193;48.884;9.182;2022-08-01T12:55:14;30.70;40.20
20066;DHT22;10193;48.884;9.182;2022-08-01T12:57:44;30.80;40.00
20066;DHT22;10193;48.884;9.182;2022-08-01T13:00:20;30.80;40.10
20066;DHT22;10193;48.884;9.182;2022-08-01T13:02:48;30.80;40.00
20066;DHT22;10193;48.884;9.182;2022-08-01T13:05:17;30.90;39.90
20066;DHT22;10193;48.884;9.182;2022-08-01T13:07:49;30.90;39.70
20066;DHT22;10193;48.884;9.182;2022-08-01T13:10:25;30.90;39.70
20066;DHT22;10193;48.884;9.182;2022-08-01T13:12:54;30.90;39.70
20066;DHT22;10193;48.884;9.182;2022-08-01T13:15:24;31.00;39.80
20066;DHT22;10193;48.884;9.182;2022-08-01T13:17:52;30.90;39.30
20066;DHT22;10193;48.884;9.182;2022-08-01T13:20:25;30.90;39.20
20066;DHT22;10193;48.884;9.182;2022-08-01T13:22:53;30.90;39.10
20066;DHT22;10193;48.884;9.182;2022-08-01T13:25:20;31.00;39.20
20066;DHT22;10193;48.884;9.182;2022-08-01T13:27:46;30.90;39.30
20066;DHT22;10193;48.884;9.182;2022-08-01T13:30:14;31.00;39.90
20066;DHT22;10193;48.884;9.182;2022-08-01T13:32:42;31.10;40.00
20066;DHT22;10193;48.884;9.182;2022-08-01T13:35:12;31.20;39.80
20066;DHT22;10193;48.884;9.182;2022-08-01T13:37:41;31.30;39.30
20066;DHT22;10193;48.884;9.182;2022-08-01T13:40:10;31.20;39.00
20066;DHT22;10193;48.884;9.182;2022-08-01T13:42:37;31.30;38.80
20066;DHT22;10193;48.884;9.182;2022-08-01T13:45:05;31.30;38.70
20066;DHT22;10193;48.884;9.182;2022-08-01T13:47:36;31.20;38.80
20066;DHT22;10193;48.884;9.182;2022-08-01T13:50:03;31.20;38.90
20066;DHT22;10193;48.884;9.182;2022-08-01T13:52:30;31.20;39.00
20066;DHT22;10193;48.884;9.182;2022-08-01T13:54:58;31.20;38.80
20066;DHT22;10193;48.884;9.182;2022-08-01T13:57:25;31.30;38.90
20066;DHT22;10193;48.884;9.182;2022-08-01T13:59:52;31.30;39.10
20066;DHT22;10193;48.884;9.182;2022-08-01T14:02:20;31.20;39.00
20066;DHT22;10193;48.884;9.182;2022-08-01T14:04:47;31.30;38.90
20066;DHT22;10193;48.884;9.182;2022-08-01T14:07:13;31.30;38.80
20066;DHT22;10193;48.884;9.182;2022-08-01T14:09:40;31.30;39.00
20066;DHT22;10193;48.884;9.182;2022-08-01T14:12:09;31.30;38.90
20066;DHT22;10193;48.884;9.182;2022-08-01T14:14:35;31.30;39.00
20066;DHT22;10193;48.884;9.182;2022-08-01T14:17:03;31.30;39.00
20066;DHT22;10193;48.884;9.182;2022-08-01T14:19:30;31.40;38.90
20066;DHT22;10193;48.884;9.182;2022-08-01T14:21:57;31.40;38.70
20066;DHT22;10193;48.884;9.182;2022-08-01T14:24:24;31.50;38.70
20066;DHT22;10193;48.884;9.182;2022-08-01T14:26:52;31.50;38.80
20066;DHT22;10193;48.884;9.182;2022-08-01T14:29:20;31.50;38.70
20066;DHT22;10193;48.884;9.182;2022-08-01T14:31:47;31.50;38.50
20066;DHT22;10193;48.884;9.182;2022-08-01T14:34:14;31.50;38.60
20066;DHT22;10193;48.884;9.182;2022-08-01T14:36:41;31.60;38.50
20066;DHT22;10193;48.884;9.182;2022-08-01T14:39:08;31.60;38.50
20066;DHT22;10193;48.884;9.182;2022-08-01T14:41:34;31.60;38.40
20066;DHT22;10193;48.884;9.182;2022-08-01T14:44:01;31.70;38.30
20066;DHT22;10193;48.884;9.182;2022-08-01T14:46:30;31.70;38.30
20066;DHT22;10193;48.884;9.182;2022-08-01T14:48:57;31.70;38.00
20066;DHT22;10193;48.884;9.182;2022-08-01T14:51:24;31.70;37.80
20066;DHT22;10193;48.884;9.182;2022-08-01T14:53:51;31.70;37.80
20066;DHT22;10193;48.884;9.182;2022-08-01T14:56:18;31.70;37.90
20066;DHT22;10193;48.884;9.182;2022-08-01T14:58:45;31.60;38.10
20066;DHT22;10193;48.884;9.182;2022-08-01T15:01:11;31.70;38.10
20066;DHT22;10193;48.884;9.182;2022-08-01T15:03:40;31.70;38.10
20066;DHT22;10193;48.884;9.182;2022-08-01T15:06:06;31.70;38.10
20066;DHT22;10193;48.884;9.182;2022-08-01T15:08:34;31.80;37.90
20066;DHT22;10193;48.884;9.182;2022-08-01T15:11:01;31.80;37.60
20066;DHT22;10193;48.884;9.182;2022-08-01T15:13:28;31.80;37.70
20066;DHT22;10193;48.884;9.182;2022-08-01T15:15:55;31.80;37.40
20066;DHT22;10193;48.884;9.182;2022-08-01T15:18:22;31.80;37.30
20066;DHT22;10193;48.884;9.182;2022-08-01T15:20:50;31.80;37.50
20066;DHT22;10193;48.884;9.182;2022-08-01T15:23:17;31.70;37.30
20066;DHT22;10193;48.884;9.182;2022-08-01T15:25:44;31.70;37.20
20066;DHT22;10193;48.884;9.182;2022-08-01T15:28:11;31.70;37.50
20066;DHT22;10193;48.884;9.182;2022-08-01T15:30:38;31.70;37.60
20066;DHT22;10193;48.884;9.182;2022-08-01T15:33:06;31.80;37.60
20066;DHT22;10193;48.884;9.182;2022-08-01T15:35:33;31.70;37.50
20066;DHT22;10193;48.884;9.182;2022-08-01T15:38:01;31.80;37.40
20066;DHT22;10193;48.884;9.182;2022-08-01T15:40:28;31.80;37.20